Terminal Aerodrome Forecast
Issued by NWS Louisville, KY

Home | Current Version | Previous Version | Text Only | Print | Product List | Glossary On
Versions: 1 2 3 4 5 6 7 8 9 10 11 12 13 14 15 16 17 18 19
589
FTUS43 KLMK 240520
TAFBWG
TAF
KBWG 240520Z 2406/2506 VRB03KT P6SM SKC
     FM241700 22006KT P6SM BKN250
     FM242300 00000KT P6SM BKN080=

USA.gov is the U.S. government's official web portal to all federal, state and local government web resources and services.